createdAt,value
2022-07-29T00:00:20.199Z,11.11
2022-07-29T00:01:21.368Z,11.11
2022-07-29T00:02:21.620Z,11.08
2022-07-29T00:03:20.050Z,11.07
2022-07-29T00:04:20.760Z,11.08
2022-07-29T00:05:21.506Z,11.07
2022-07-29T00:06:20.891Z,11.05
2022-07-29T00:07:23.059Z,11.04
2022-07-29T00:08:21.441Z,11.00
2022-07-29T00:09:21.757Z,10.96
2022-07-29T00:10:23.086Z,10.97
2022-07-29T00:11:24.279Z,10.97
2022-07-29T00:12:26.181Z,10.97
2022-07-29T00:13:32.611Z,10.94
2022-07-29T00:14:24.296Z,10.96
2022-07-29T00:15:23.715Z,10.96
2022-07-29T00:16:23.894Z,10.94
2022-07-29T00:17:24.174Z,10.92
2022-07-29T00:18:26.356Z,10.92
2022-07-29T00:19:26.533Z,10.94
2022-07-29T00:20:28.692Z,10.96
2022-07-29T00:21:25.227Z,10.97
2022-07-29T00:22:27.419Z,10.99
2022-07-29T00:23:27.595Z,11.02
2022-07-29T00:24:26.105Z,11.04
2022-07-29T00:25:27.265Z,11.04
2022-07-29T00:26:26.649Z,11.04
2022-07-29T00:27:26.954Z,11.04
2022-07-29T00:28:27.263Z,11.00
2022-07-29T00:29:34.364Z,10.99
2022-07-29T00:30:30.882Z,11.00
2022-07-29T00:31:29.876Z,11.00
2022-07-29T00:32:28.995Z,11.00
2022-07-29T00:33:30.678Z,10.97
2022-07-29T00:34:30.871Z,10.94
2022-07-29T00:35:31.428Z,10.94
2022-07-29T00:36:31.255Z,10.99
2022-07-29T00:37:31.940Z,11.00
2022-07-29T00:38:32.126Z,10.99
2022-07-29T00:39:32.309Z,11.02
2022-07-29T00:40:32.738Z,11.02
2022-07-29T00:41:33.175Z,11.02
2022-07-29T00:42:33.333Z,11.04
2022-07-29T00:43:33.494Z,11.02
2022-07-29T00:44:33.676Z,11.02
2022-07-29T00:45:36.370Z,10.99
2022-07-29T00:46:34.655Z,10.94
2022-07-29T00:47:33.032Z,10.89
2022-07-29T00:48:35.194Z,10.89
2022-07-29T00:49:35.355Z,10.82
2022-07-29T00:50:34.850Z,10.78
2022-07-29T00:51:35.735Z,10.72
2022-07-29T00:52:35.896Z,10.69
2022-07-29T00:53:36.579Z,10.63
2022-07-29T00:54:37.461Z,10.63
2022-07-29T00:55:38.210Z,10.63
2022-07-29T00:56:37.157Z,10.63
2022-07-29T00:57:37.812Z,10.61
2022-07-29T00:58:36.200Z,10.60
2022-07-29T00:59:38.356Z,10.59
2022-07-29T01:00:37.812Z,10.54
2022-07-29T01:01:38.972Z,10.54
2022-07-29T01:02:39.194Z,10.54
2022-07-29T01:03:39.324Z,10.54
2022-07-29T01:04:39.518Z,10.51
2022-07-29T01:05:50.788Z,10.51
2022-07-29T01:06:41.488Z,10.49
2022-07-29T01:07:40.666Z,10.44
2022-07-29T01:08:40.848Z,10.42
2022-07-29T01:09:45.816Z,10.40
2022-07-29T01:10:44.694Z,10.37
2022-07-29T01:11:40.129Z,10.37
2022-07-29T01:12:42.310Z,10.37
2022-07-29T01:13:40.687Z,10.38
2022-07-29T01:14:40.997Z,10.40
2022-07-29T01:15:49.412Z,10.41
2022-07-29T01:16:42.611Z,10.37
2022-07-29T01:17:52.692Z,10.35
2022-07-29T01:18:43.165Z,10.34
2022-07-29T01:19:42.410Z,10.31
2022-07-29T01:20:44.771Z,10.33
2022-07-29T01:21:43.038Z,10.34
2022-07-29T01:22:45.232Z,10.33
2022-07-29T01:23:45.409Z,10.30
2022-07-29T01:24:43.909Z,10.25
2022-07-29T01:25:48.586Z,10.20
2022-07-29T01:26:45.453Z,10.16
2022-07-29T01:27:44.771Z,10.12
2022-07-29T01:28:46.973Z,10.10
2022-07-29T01:29:45.416Z,10.07
2022-07-29T01:30:47.649Z,10.05
2022-07-29T01:31:59.412Z,10.04
2022-07-29T01:32:47.386Z,10.01
2022-07-29T01:33:48.549Z,9.98
2022-07-29T01:34:46.935Z,9.97
2022-07-29T01:35:49.378Z,9.95
2022-07-29T01:36:47.531Z,9.98
2022-07-29T01:37:47.824Z,9.98
2022-07-29T01:38:50.006Z,9.99
2022-07-29T01:39:48.386Z,9.97
2022-07-29T01:40:49.508Z,9.95
2022-07-29T01:41:48.995Z,9.95
2022-07-29T01:42:49.301Z,9.95
2022-07-29T01:43:49.599Z,9.89
2022-07-29T01:44:51.784Z,9.89
2022-07-29T01:45:52.185Z,9.91
2022-07-29T01:46:50.484Z,9.87
2022-07-29T01:47:51.649Z,9.84
2022-07-29T01:48:51.895Z,9.83
2022-07-29T01:49:53.192Z,9.80
2022-07-29T01:50:55.365Z,9.79
2022-07-29T01:51:51.896Z,9.76
2022-07-29T01:52:52.199Z,9.73
2022-07-29T01:53:52.505Z,9.69
2022-07-29T01:54:54.681Z,9.68
2022-07-29T01:55:56.810Z,9.66
2022-07-29T01:56:56.027Z,9.64
2022-07-29T01:57:53.659Z,9.62
2022-07-29T01:58:53.960Z,9.62
2022-07-29T01:59:55.145Z,9.62
2022-07-29T02:00:56.547Z,9.59
2022-07-29T02:01:56.558Z,9.58
2022-07-29T02:02:55.159Z,9.55
2022-07-29T02:03:55.455Z,9.54
2022-07-29T02:04:57.677Z,9.50
2022-07-29T02:05:57.857Z,9.50
2022-07-29T02:06:58.022Z,9.47
2022-07-29T02:07:58.204Z,9.46
2022-07-29T02:08:56.968Z,9.44
2022-07-29T02:09:57.267Z,9.41
2022-07-29T02:11:01.387Z,9.37
2022-07-29T02:11:57.790Z,9.37
2022-07-29T02:12:59.975Z,9.34
2022-07-29T02:14:00.175Z,9.32
2022-07-29T02:15:00.364Z,9.31
2022-07-29T02:16:00.626Z,9.31
2022-07-29T02:17:01.210Z,9.29
2022-07-29T02:18:01.386Z,9.26
2022-07-29T02:19:01.584Z,9.23
2022-07-29T02:20:01.768Z,9.23
2022-07-29T02:21:00.514Z,9.26
2022-07-29T02:22:02.693Z,9.26
2022-07-29T02:23:02.875Z,9.28
2022-07-29T02:24:01.372Z,9.29
2022-07-29T02:25:03.813Z,9.32
2022-07-29T02:26:03.742Z,9.34
2022-07-29T02:27:03.938Z,9.39
2022-07-29T02:28:04.118Z,9.41
2022-07-29T02:29:04.811Z,9.41
2022-07-29T02:30:04.997Z,9.46
2022-07-29T02:31:05.260Z,9.48
2022-07-29T02:32:05.379Z,9.48
2022-07-29T02:33:06.070Z,9.51
2022-07-29T02:34:06.230Z,9.54
2022-07-29T02:35:06.390Z,9.54
2022-07-29T02:36:06.593Z,9.55
2022-07-29T02:37:07.278Z,9.58
2022-07-29T02:38:05.661Z,9.58
2022-07-29T02:39:07.840Z,9.58
2022-07-29T02:40:08.021Z,9.65
2022-07-29T02:41:08.181Z,9.68
2022-07-29T02:42:08.337Z,9.65
2022-07-29T02:43:08.699Z,9.62
2022-07-29T02:44:08.877Z,9.58
2022-07-29T02:45:09.568Z,9.54
2022-07-29T02:46:12.739Z,9.50
2022-07-29T02:47:09.271Z,9.47
2022-07-29T02:48:08.508Z,9.41
2022-07-29T02:49:10.763Z,9.36
2022-07-29T02:50:09.143Z,9.32
2022-07-29T02:51:09.496Z,9.31
2022-07-29T02:52:09.915Z,9.36
2022-07-29T02:53:10.057Z,9.36
2022-07-29T02:54:12.363Z,9.36
2022-07-29T02:55:10.643Z,9.32
2022-07-29T02:56:12.794Z,9.32
2022-07-29T02:57:12.958Z,9.32
2022-07-29T02:58:13.113Z,9.36
2022-07-29T02:59:13.294Z,9.34
2022-07-29T03:00:15.964Z,9.34
2022-07-29T03:01:12.442Z,9.31
2022-07-29T03:02:14.591Z,9.36
2022-07-29T03:03:14.742Z,9.43
2022-07-29T03:04:15.341Z,9.47
2022-07-29T03:05:15.583Z,9.50
2022-07-29T03:06:31.109Z,9.50
2022-07-29T03:07:15.158Z,9.59
2022-07-29T03:08:14.416Z,9.61
2022-07-29T03:09:16.602Z,9.64
2022-07-29T03:10:18.779Z,9.64
2022-07-29T03:11:15.309Z,9.65
2022-07-29T03:12:19.436Z,9.68
2022-07-29T03:13:15.857Z,9.74
2022-07-29T03:14:19.928Z,9.77
2022-07-29T03:15:17.345Z,9.80
2022-07-29T03:16:18.809Z,9.82
2022-07-29T03:17:16.998Z,9.83
2022-07-29T03:18:17.325Z,9.86
2022-07-29T03:19:17.658Z,9.87
2022-07-29T03:20:21.848Z,9.99
2022-07-29T03:21:18.282Z,10.09
2022-07-29T03:22:19.224Z,10.30
2022-07-29T03:23:18.964Z,10.46
2022-07-29T03:24:19.509Z,10.53
2022-07-29T03:25:21.530Z,10.56
2022-07-29T03:26:19.934Z,10.59
2022-07-29T03:27:20.273Z,10.63
2022-07-29T03:28:20.616Z,10.67
2022-07-29T03:29:20.874Z,10.69
2022-07-29T03:30:22.249Z,10.71
2022-07-29T03:31:21.575Z,10.71
2022-07-29T03:32:24.028Z,10.72
2022-07-29T03:33:23.040Z,10.74
2022-07-29T03:34:23.586Z,10.75
2022-07-29T03:35:26.582Z,10.76
2022-07-29T03:36:23.025Z,10.74
2022-07-29T03:37:23.366Z,10.72
2022-07-29T03:38:24.611Z,10.68
2022-07-29T03:39:23.960Z,10.67
2022-07-29T03:40:26.150Z,10.68
2022-07-29T03:41:24.568Z,10.68
2022-07-29T03:42:24.911Z,10.71
2022-07-29T03:43:27.093Z,10.72
2022-07-29T03:44:25.501Z,10.74
2022-07-29T03:45:29.152Z,10.75
2022-07-29T03:46:26.148Z,10.74
2022-07-29T03:47:45.196Z,10.71
2022-07-29T03:48:29.550Z,10.69
2022-07-29T03:49:26.901Z,10.69
2022-07-29T03:50:29.035Z,10.69
2022-07-29T03:51:33.110Z,10.71
2022-07-29T03:52:28.680Z,10.72
2022-07-29T03:53:29.858Z,10.78
2022-07-29T03:54:28.276Z,10.76
2022-07-29T03:55:28.537Z,10.78
2022-07-29T03:56:28.759Z,10.79
2022-07-29T03:57:29.115Z,10.79
2022-07-29T03:58:29.345Z,10.81
2022-07-29T03:59:31.515Z,10.82
2022-07-29T04:00:33.672Z,10.84
2022-07-29T04:01:31.942Z,10.86
2022-07-29T04:02:32.161Z,10.86
2022-07-29T04:03:32.282Z,10.89
2022-07-29T04:04:32.441Z,10.90
2022-07-29T04:05:33.025Z,10.92
2022-07-29T04:06:31.332Z,10.96
2022-07-29T04:07:33.509Z,10.99
2022-07-29T04:08:31.933Z,11.00
2022-07-29T04:09:32.158Z,11.02
2022-07-29T04:10:34.084Z,11.00
2022-07-29T04:11:34.712Z,11.05
2022-07-29T04:12:34.037Z,11.02
2022-07-29T04:13:35.188Z,11.00
2022-07-29T04:14:35.352Z,11.02
2022-07-29T04:15:35.975Z,11.04
2022-07-29T04:16:35.750Z,11.04
2022-07-29T04:17:36.429Z,11.04
2022-07-29T04:18:34.726Z,11.08
2022-07-29T04:19:34.949Z,11.07
2022-07-29T04:20:39.106Z,11.08
2022-07-29T04:21:35.544Z,11.08
2022-07-29T04:22:37.747Z,11.10
2022-07-29T04:23:36.034Z,11.10
2022-07-29T04:24:37.386Z,11.11
2022-07-29T04:25:37.504Z,11.12
2022-07-29T04:26:36.925Z,11.12
2022-07-29T04:27:37.156Z,11.15
2022-07-29T04:28:37.380Z,11.17
2022-07-29T04:29:37.606Z,11.19
2022-07-29T04:30:42.826Z,11.23
2022-07-29T04:31:38.161Z,11.26
2022-07-29T04:32:40.323Z,11.26
2022-07-29T04:33:40.508Z,11.29
2022-07-29T04:34:38.941Z,11.29
2022-07-29T04:35:47.107Z,11.29
2022-07-29T04:36:42.287Z,11.32
2022-07-29T04:37:39.846Z,11.27
2022-07-29T04:38:42.008Z,11.30
2022-07-29T04:39:42.167Z,11.29
2022-07-29T04:40:42.463Z,11.29
2022-07-29T04:41:42.574Z,11.30
2022-07-29T04:42:46.670Z,11.33
2022-07-29T04:43:43.434Z,11.35
2022-07-29T04:44:43.638Z,11.33
2022-07-29T04:45:44.032Z,11.33
2022-07-29T04:46:44.071Z,11.35
2022-07-29T04:47:44.189Z,11.40
2022-07-29T04:48:42.920Z,11.41
2022-07-29T04:49:45.019Z,11.45
2022-07-29T04:50:45.187Z,11.48
2022-07-29T04:51:45.367Z,11.51
2022-07-29T04:52:44.039Z,11.52
2022-07-29T04:53:44.258Z,11.52
2022-07-29T04:54:46.443Z,11.55
2022-07-29T04:55:45.890Z,11.57
2022-07-29T04:56:47.109Z,11.62
2022-07-29T04:57:45.466Z,11.66
2022-07-29T04:58:45.823Z,11.69
2022-07-29T04:59:47.999Z,11.75
2022-07-29T05:00:50.164Z,11.75
2022-07-29T05:01:46.635Z,11.83
2022-07-29T05:02:48.823Z,11.84
2022-07-29T05:03:48.969Z,11.87
2022-07-29T05:04:47.512Z,11.91
2022-07-29T05:05:51.654Z,11.97
2022-07-29T05:06:47.976Z,12.00
2022-07-29T05:07:50.148Z,12.04
2022-07-29T05:08:50.343Z,12.12
2022-07-29T05:09:50.530Z,12.18
2022-07-29T05:10:51.105Z,12.22
2022-07-29T05:11:49.413Z,12.27
2022-07-29T05:12:51.604Z,12.31
2022-07-29T05:13:50.029Z,12.37
2022-07-29T05:14:52.178Z,12.39
2022-07-29T05:15:54.378Z,12.42
2022-07-29T05:16:50.843Z,12.45
2022-07-29T05:17:54.475Z,12.49
2022-07-29T05:18:51.294Z,12.54
2022-07-29T05:19:51.520Z,12.58
2022-07-29T05:20:52.703Z,12.61
2022-07-29T05:21:52.118Z,12.65
2022-07-29T05:22:54.304Z,12.72
2022-07-29T05:23:52.595Z,12.75
2022-07-29T05:24:52.944Z,12.79
2022-07-29T05:25:53.213Z,12.86
2022-07-29T05:26:53.433Z,12.93
2022-07-29T05:27:53.658Z,12.98
2022-07-29T05:28:55.835Z,13.05
2022-07-29T05:29:54.139Z,13.15
2022-07-29T05:30:55.375Z,13.16
2022-07-29T05:31:54.758Z,13.20
2022-07-29T05:32:54.995Z,13.23
2022-07-29T05:33:57.165Z,13.27
2022-07-29T05:34:55.464Z,13.33
2022-07-29T05:36:00.769Z,13.39
2022-07-29T05:36:57.822Z,13.46
2022-07-29T05:37:56.251Z,13.54
2022-07-29T05:38:58.432Z,13.60
2022-07-29T05:39:59.124Z,13.68
2022-07-29T05:40:58.924Z,13.77
2022-07-29T05:41:59.118Z,13.86
2022-07-29T05:42:57.539Z,13.92
2022-07-29T05:43:59.712Z,14.10
2022-07-29T05:44:58.017Z,14.28
2022-07-29T05:46:00.329Z,14.41
2022-07-29T05:46:58.536Z,14.37
2022-07-29T05:47:58.775Z,14.44
2022-07-29T05:49:00.994Z,14.59
2022-07-29T05:49:59.290Z,14.81
2022-07-29T05:51:01.492Z,15.02
2022-07-29T05:51:59.795Z,15.39
2022-07-29T05:53:00.037Z,15.70
2022-07-29T05:54:03.214Z,15.98
2022-07-29T05:55:00.537Z,16.35
2022-07-29T05:56:01.634Z,16.75
2022-07-29T05:57:01.091Z,16.94
2022-07-29T05:58:01.319Z,17.20
2022-07-29T05:59:01.564Z,17.14
2022-07-29T06:00:03.740Z,17.04
2022-07-29T06:01:02.154Z,16.90
2022-07-29T06:02:02.370Z,16.93
2022-07-29T06:03:04.556Z,16.99
2022-07-29T06:04:02.913Z,16.86
2022-07-29T06:05:03.134Z,16.74
2022-07-29T06:06:05.321Z,16.81
2022-07-29T06:07:03.634Z,16.90
2022-07-29T06:08:05.808Z,16.87
2022-07-29T06:09:12.547Z,16.64
2022-07-29T06:10:05.380Z,16.36
2022-07-29T06:11:06.568Z,16.17
2022-07-29T06:12:05.010Z,16.09
2022-07-29T06:13:05.243Z,16.08
2022-07-29T06:14:07.421Z,16.15
2022-07-29T06:15:07.611Z,16.29
2022-07-29T06:16:07.843Z,16.49
2022-07-29T06:17:06.294Z,16.76
2022-07-29T06:18:06.531Z,17.01
2022-07-29T06:19:08.716Z,17.06
2022-07-29T06:20:07.613Z,17.06
2022-07-29T06:21:09.258Z,17.14
2022-07-29T06:22:07.552Z,17.19
2022-07-29T06:23:07.808Z,17.22
2022-07-29T06:24:08.040Z,17.31
2022-07-29T06:25:08.283Z,17.36
2022-07-29T06:26:10.479Z,17.45
2022-07-29T06:27:08.797Z,17.36
2022-07-29T06:28:09.034Z,17.38
2022-07-29T06:29:11.244Z,17.49
2022-07-29T06:30:09.544Z,17.60
2022-07-29T06:31:10.305Z,17.83
2022-07-29T06:32:10.071Z,17.95
2022-07-29T06:33:12.265Z,18.01
2022-07-29T06:34:12.555Z,18.16
2022-07-29T06:35:39.354Z,18.23
2022-07-29T06:36:12.112Z,18.34
2022-07-29T06:37:15.418Z,18.35
2022-07-29T06:38:30.270Z,18.23
2022-07-29T06:39:15.045Z,18.26
2022-07-29T06:40:14.019Z,18.20
2022-07-29T06:41:14.178Z,18.28
2022-07-29T06:42:14.837Z,18.37
2022-07-29T06:43:15.005Z,18.40
2022-07-29T06:44:15.277Z,18.33
2022-07-29T06:45:18.689Z,18.19
2022-07-29T06:46:15.952Z,18.22
2022-07-29T06:47:16.106Z,18.33
2022-07-29T06:48:16.279Z,18.41
2022-07-29T06:49:17.133Z,18.35
2022-07-29T06:50:16.163Z,18.41
2022-07-29T06:51:17.418Z,18.56
2022-07-29T06:52:18.548Z,18.63
2022-07-29T06:53:17.734Z,18.80
2022-07-29T06:54:18.113Z,18.98
2022-07-29T06:55:25.022Z,19.11
2022-07-29T06:56:17.991Z,19.16
2022-07-29T06:57:19.172Z,18.96
2022-07-29T06:58:19.353Z,18.66
2022-07-29T06:59:21.665Z,18.55
2022-07-29T07:00:21.204Z,18.78
2022-07-29T07:01:18.610Z,19.12
2022-07-29T07:02:20.747Z,19.37
2022-07-29T07:03:20.908Z,19.36
2022-07-29T07:04:19.909Z,19.33
2022-07-29T07:05:20.610Z,19.33
2022-07-29T07:06:20.033Z,19.52
2022-07-29T07:07:20.273Z,19.69
2022-07-29T07:08:22.457Z,19.82
2022-07-29T07:09:20.763Z,19.70
2022-07-29T07:10:22.975Z,19.71
2022-07-29T07:11:23.135Z,19.54
2022-07-29T07:12:23.322Z,19.41
2022-07-29T07:13:24.027Z,19.49
2022-07-29T07:14:24.223Z,19.41
2022-07-29T07:15:39.300Z,19.24
2022-07-29T07:16:27.053Z,19.22
2022-07-29T07:17:23.249Z,19.37
2022-07-29T07:18:25.437Z,19.49
2022-07-29T07:19:25.624Z,19.44
2022-07-29T07:20:25.822Z,19.09
2022-07-29T07:21:24.370Z,18.96
2022-07-29T07:22:26.554Z,18.89
2022-07-29T07:23:26.729Z,18.77
2022-07-29T07:24:26.931Z,18.84
2022-07-29T07:25:27.110Z,19.15
2022-07-29T07:26:25.791Z,19.74
2022-07-29T07:27:26.029Z,20.56
2022-07-29T07:28:28.215Z,20.74
2022-07-29T07:29:26.521Z,20.29
2022-07-29T07:30:27.681Z,19.67
2022-07-29T07:31:27.080Z,19.62
2022-07-29T07:32:29.184Z,19.69
2022-07-29T07:33:29.357Z,19.84
2022-07-29T07:34:29.620Z,20.13
2022-07-29T07:35:28.404Z,20.04
2022-07-29T07:36:28.507Z,20.25
2022-07-29T07:37:30.672Z,20.70
2022-07-29T07:38:30.850Z,20.97
2022-07-29T07:39:29.283Z,21.07
2022-07-29T07:40:29.530Z,21.00
2022-07-29T07:41:32.539Z,20.96
2022-07-29T07:42:30.085Z,20.56
2022-07-29T07:43:32.264Z,20.16
2022-07-29T07:44:30.574Z,20.65
2022-07-29T07:45:30.847Z,20.81
2022-07-29T07:46:31.073Z,20.72
2022-07-29T07:47:31.314Z,20.81
2022-07-29T07:48:31.638Z,21.18
2022-07-29T07:49:33.808Z,21.37
2022-07-29T07:50:32.958Z,21.62
2022-07-29T07:51:33.347Z,21.79
2022-07-29T07:52:34.610Z,21.70
2022-07-29T07:53:34.778Z,21.15
2022-07-29T07:54:34.342Z,20.87
2022-07-29T07:55:53.534Z,21.32
2022-07-29T07:56:35.420Z,21.98
2022-07-29T07:57:34.148Z,22.00
2022-07-29T07:58:34.397Z,21.98
2022-07-29T07:59:36.575Z,22.22
2022-07-29T08:00:35.809Z,22.51
2022-07-29T08:01:55.022Z,22.55
2022-07-29T08:02:36.393Z,22.96
2022-07-29T08:03:35.660Z,23.37
2022-07-29T08:04:37.846Z,23.39
2022-07-29T08:05:37.124Z,23.59
2022-07-29T08:06:36.471Z,23.50
2022-07-29T08:07:36.709Z,23.63
2022-07-29T08:08:36.953Z,23.46
2022-07-29T08:09:39.132Z,23.56
2022-07-29T08:10:38.433Z,23.81
2022-07-29T08:11:38.591Z,23.12
2022-07-29T08:12:39.008Z,22.45
2022-07-29T08:13:38.301Z,22.39
2022-07-29T08:14:38.535Z,22.32
2022-07-29T08:15:40.713Z,22.11
2022-07-29T08:16:40.986Z,22.54
2022-07-29T08:17:39.252Z,22.84
2022-07-29T08:18:39.495Z,23.08
2022-07-29T08:19:39.740Z,22.93
2022-07-29T08:20:41.916Z,22.39
2022-07-29T08:21:42.242Z,22.48
2022-07-29T08:22:40.576Z,22.51
2022-07-29T08:23:45.496Z,21.77
2022-07-29T08:24:42.083Z,21.45
2022-07-29T08:25:43.223Z,21.37
2022-07-29T08:26:45.389Z,21.64
2022-07-29T08:27:43.749Z,22.18
2022-07-29T08:28:44.191Z,22.41
2022-07-29T08:29:44.324Z,22.60
2022-07-29T08:30:44.505Z,22.53
2022-07-29T08:31:44.159Z,22.70
2022-07-29T08:32:53.791Z,22.55
2022-07-29T08:33:46.635Z,21.85
2022-07-29T08:34:43.959Z,21.98
2022-07-29T08:35:44.211Z,21.95
2022-07-29T08:36:45.412Z,22.08
2022-07-29T08:37:45.681Z,21.96
2022-07-29T08:38:44.977Z,21.96
2022-07-29T08:39:47.166Z,22.14
2022-07-29T08:40:47.344Z,22.00
2022-07-29T08:41:56.590Z,22.08
2022-07-29T08:42:47.041Z,21.92
2022-07-29T08:43:46.334Z,21.85
2022-07-29T08:44:48.544Z,21.91
2022-07-29T08:45:48.033Z,21.98
2022-07-29T08:46:49.026Z,22.00
2022-07-29T08:47:47.452Z,22.60
2022-07-29T08:48:49.687Z,22.54
2022-07-29T08:49:49.815Z,22.51
2022-07-29T08:50:49.997Z,23.32
2022-07-29T08:51:49.588Z,23.98
2022-07-29T08:52:50.741Z,24.08
2022-07-29T08:53:50.912Z,23.96
2022-07-29T08:54:51.109Z,23.61
2022-07-29T08:55:51.775Z,23.61
2022-07-29T08:56:51.959Z,23.73
2022-07-29T08:57:52.012Z,23.71
2022-07-29T08:58:52.787Z,23.96
2022-07-29T08:59:52.727Z,24.28
2022-07-29T09:00:52.914Z,24.92
2022-07-29T09:01:53.579Z,24.11
2022-07-29T09:02:53.758Z,23.95
2022-07-29T09:03:53.955Z,23.92
2022-07-29T09:04:52.369Z,23.95
2022-07-29T09:05:52.620Z,24.43
2022-07-29T09:06:54.796Z,25.10
2022-07-29T09:07:55.707Z,25.55
2022-07-29T09:08:55.381Z,25.26
2022-07-29T09:09:53.681Z,25.22
2022-07-29T09:10:55.862Z,24.89
2022-07-29T09:11:56.432Z,24.69
2022-07-29T09:12:56.214Z,24.43
2022-07-29T09:13:56.388Z,24.50
2022-07-29T09:14:55.066Z,24.89
2022-07-29T09:15:57.290Z,24.85
2022-07-29T09:16:55.626Z,25.36
2022-07-29T09:17:57.763Z,25.81
2022-07-29T09:18:57.945Z,24.96
2022-07-29T09:19:58.102Z,24.45
2022-07-29T09:20:58.788Z,24.51
2022-07-29T09:21:59.754Z,23.76
2022-07-29T09:22:57.451Z,23.99
2022-07-29T09:23:57.683Z,24.18
2022-07-29T09:24:57.949Z,24.38
2022-07-29T09:25:59.126Z,24.69
2022-07-29T09:26:58.428Z,24.08
2022-07-29T09:27:58.665Z,24.36
2022-07-29T09:29:00.861Z,24.86
2022-07-29T09:30:01.045Z,25.46
2022-07-29T09:31:01.472Z,25.78
2022-07-29T09:32:01.467Z,25.90
2022-07-29T09:33:02.093Z,25.73
2022-07-29T09:34:02.253Z,25.70
2022-07-29T09:35:02.437Z,25.35
2022-07-29T09:36:03.039Z,25.40
2022-07-29T09:37:01.342Z,25.29
2022-07-29T09:38:03.515Z,25.41
2022-07-29T09:39:03.669Z,25.26
2022-07-29T09:40:02.100Z,25.31
2022-07-29T09:41:05.527Z,25.01
2022-07-29T09:42:04.534Z,24.68
2022-07-29T09:43:02.852Z,24.28
2022-07-29T09:44:04.460Z,24.58
2022-07-29T09:45:03.387Z,24.85
2022-07-29T09:46:03.625Z,24.92
2022-07-29T09:47:05.873Z,24.84
2022-07-29T09:48:04.170Z,24.86
2022-07-29T09:49:04.438Z,24.68
2022-07-29T09:50:05.539Z,24.78
2022-07-29T09:51:06.897Z,25.01
2022-07-29T09:52:07.065Z,24.70
2022-07-29T09:53:06.532Z,24.70
2022-07-29T09:54:05.825Z,24.63
2022-07-29T09:55:06.071Z,24.78
2022-07-29T09:56:06.310Z,24.80
2022-07-29T09:57:08.490Z,24.63
2022-07-29T09:58:06.811Z,25.13
2022-07-29T09:59:09.003Z,24.81
2022-07-29T10:00:09.190Z,25.33
2022-07-29T10:01:08.654Z,25.75
2022-07-29T10:02:09.842Z,26.19
2022-07-29T10:03:08.260Z,26.48
2022-07-29T10:04:12.326Z,26.97
2022-07-29T10:05:10.561Z,26.47
2022-07-29T10:06:08.999Z,25.90
2022-07-29T10:07:11.187Z,25.88
2022-07-29T10:08:09.492Z,26.02
2022-07-29T10:09:10.626Z,26.55
2022-07-29T10:10:10.060Z,26.80
2022-07-29T10:11:10.325Z,26.80
2022-07-29T10:12:12.508Z,25.81
2022-07-29T10:13:15.054Z,25.46
2022-07-29T10:14:12.961Z,26.26
2022-07-29T10:15:11.405Z,26.71
2022-07-29T10:16:13.825Z,26.96
2022-07-29T10:17:13.767Z,26.44
2022-07-29T10:18:12.202Z,26.05
2022-07-29T10:19:16.382Z,25.55
2022-07-29T10:20:16.452Z,25.65
2022-07-29T10:21:34.791Z,25.60
2022-07-29T10:22:15.038Z,25.95
2022-07-29T10:23:13.663Z,26.26
2022-07-29T10:24:15.304Z,26.83
2022-07-29T10:25:16.165Z,26.99
2022-07-29T10:26:16.348Z,27.25
2022-07-29T10:27:14.789Z,27.86
2022-07-29T10:28:16.843Z,27.82
2022-07-29T10:29:19.202Z,27.70
2022-07-29T10:30:17.435Z,27.68
2022-07-29T10:31:15.948Z,27.95
2022-07-29T10:32:16.164Z,27.08
2022-07-29T10:33:16.399Z,26.33
2022-07-29T10:34:17.439Z,26.36
2022-07-29T10:35:18.853Z,26.44
2022-07-29T10:36:17.279Z,26.02
2022-07-29T10:37:19.462Z,25.28
2022-07-29T10:38:17.863Z,25.01
2022-07-29T10:39:19.053Z,24.68
2022-07-29T10:40:20.341Z,24.17
2022-07-29T10:41:19.533Z,23.99
2022-07-29T10:42:20.090Z,24.10
2022-07-29T10:43:19.238Z,24.32
2022-07-29T10:44:23.279Z,24.17
2022-07-29T10:45:21.746Z,24.13
2022-07-29T10:46:20.130Z,23.99
2022-07-29T10:47:20.385Z,23.92
2022-07-29T10:48:24.000Z,23.88
2022-07-29T10:49:25.072Z,23.78
2022-07-29T10:50:24.371Z,24.13
2022-07-29T10:51:21.447Z,24.21
2022-07-29T10:52:26.627Z,23.99
2022-07-29T10:53:23.811Z,24.06
2022-07-29T10:54:23.197Z,24.01
2022-07-29T10:55:24.039Z,23.92
2022-07-29T10:56:22.850Z,23.99
2022-07-29T10:57:25.971Z,24.30
2022-07-29T10:58:24.437Z,24.48
2022-07-29T10:59:25.789Z,24.48
2022-07-29T11:00:28.754Z,24.57
2022-07-29T11:01:37.410Z,24.35
2022-07-29T11:02:42.647Z,24.32
2022-07-29T11:03:26.002Z,24.30
2022-07-29T11:04:29.124Z,24.30
2022-07-29T11:05:32.215Z,24.33
2022-07-29T11:07:27.972Z,23.98
2022-07-29T11:08:27.861Z,24.10
2022-07-29T11:09:37.630Z,24.08
2022-07-29T11:11:29.648Z,24.32
2022-07-29T11:12:27.474Z,24.42
2022-07-29T11:13:27.751Z,24.69
2022-07-29T11:14:28.992Z,24.42
2022-07-29T11:15:28.621Z,24.26
2022-07-29T11:16:29.481Z,24.35
2022-07-29T11:17:47.127Z,24.28
2022-07-29T11:18:30.205Z,24.40
2022-07-29T11:19:30.888Z,24.53
2022-07-29T11:20:29.734Z,24.74
2022-07-29T11:21:35.958Z,25.03
2022-07-29T11:22:31.246Z,24.98
2022-07-29T11:23:33.738Z,24.99
2022-07-29T11:24:30.811Z,25.07
2022-07-29T11:25:51.029Z,25.26
2022-07-29T11:26:35.624Z,25.47
2022-07-29T11:27:31.580Z,25.41
2022-07-29T11:28:31.890Z,25.21
2022-07-29T11:29:34.073Z,25.16
2022-07-29T11:30:35.259Z,25.25
2022-07-29T11:31:34.441Z,24.99
2022-07-29T11:32:36.096Z,24.99
2022-07-29T11:33:54.625Z,24.99
2022-07-29T11:34:36.439Z,25.21
2022-07-29T11:35:38.371Z,25.10
2022-07-29T11:36:36.965Z,24.99
2022-07-29T11:37:42.475Z,24.81
2022-07-29T11:38:35.586Z,24.93
2022-07-29T11:39:37.835Z,24.92
2022-07-29T11:40:35.114Z,24.96
2022-07-29T11:41:37.308Z,24.73
2022-07-29T11:42:37.577Z,24.74
2022-07-29T11:43:36.020Z,24.45
2022-07-29T11:44:38.223Z,24.70
2022-07-29T11:45:42.131Z,24.99
2022-07-29T11:46:39.754Z,25.41
2022-07-29T11:47:39.483Z,25.51
2022-07-29T11:48:37.487Z,25.50
2022-07-29T11:49:39.576Z,25.16
2022-07-29T11:50:44.244Z,25.01
2022-07-29T11:51:48.301Z,24.60
2022-07-29T11:52:49.534Z,24.69
2022-07-29T11:53:39.738Z,25.03
2022-07-29T11:54:57.988Z,25.10
2022-07-29T11:55:50.772Z,24.99
2022-07-29T11:56:42.558Z,25.01
2022-07-29T11:57:41.739Z,25.44
2022-07-29T11:58:41.193Z,25.98
2022-07-29T11:59:40.484Z,25.78
2022-07-29T12:00:40.827Z,26.03
2022-07-29T12:01:43.003Z,26.23
2022-07-29T12:02:41.485Z,26.38
2022-07-29T12:03:43.827Z,26.52
2022-07-29T12:04:42.004Z,26.51
2022-07-29T12:05:48.172Z,26.28
2022-07-29T12:06:45.422Z,26.22
2022-07-29T12:07:45.469Z,26.25
2022-07-29T12:08:46.048Z,26.05
2022-07-29T12:09:44.985Z,25.50
2022-07-29T12:10:45.704Z,24.85
2022-07-29T12:11:45.082Z,24.58
2022-07-29T12:12:44.155Z,24.98
2022-07-29T12:13:45.310Z,25.31
2022-07-29T12:14:44.737Z,25.72
2022-07-29T12:15:47.482Z,25.91
2022-07-29T12:16:45.333Z,25.81
2022-07-29T12:17:47.445Z,25.35
2022-07-29T12:18:46.625Z,24.65
2022-07-29T12:19:46.060Z,24.43
2022-07-29T12:20:46.361Z,24.36
2022-07-29T12:21:49.436Z,24.43
2022-07-29T12:22:47.803Z,24.32
2022-07-29T12:23:47.934Z,24.29
2022-07-29T12:24:47.423Z,24.40
2022-07-29T12:25:49.904Z,24.42
2022-07-29T12:26:49.828Z,24.16
2022-07-29T12:27:50.011Z,23.98
2022-07-29T12:28:49.501Z,24.10
2022-07-29T12:29:48.986Z,24.35
2022-07-29T12:30:49.127Z,24.57
2022-07-29T12:31:51.361Z,24.78
2022-07-29T12:32:49.627Z,24.85
2022-07-29T12:33:50.817Z,24.92
2022-07-29T12:34:50.126Z,24.74
2022-07-29T12:36:03.526Z,24.88
2022-07-29T12:36:54.988Z,24.92
2022-07-29T12:37:50.834Z,24.81
2022-07-29T12:38:51.870Z,24.98
2022-07-29T12:39:53.269Z,25.04
2022-07-29T12:40:51.576Z,24.69
2022-07-29T12:41:53.749Z,24.53
2022-07-29T12:42:53.077Z,24.85
2022-07-29T12:43:53.184Z,24.88
2022-07-29T12:44:54.554Z,24.89
2022-07-29T12:45:52.857Z,24.43
2022-07-29T12:46:55.103Z,24.36
2022-07-29T12:47:53.380Z,24.13
2022-07-29T12:48:57.720Z,24.01
2022-07-29T12:49:53.847Z,24.21
2022-07-29T12:50:56.020Z,24.36
2022-07-29T12:51:54.338Z,24.06
2022-07-29T12:52:54.566Z,24.08
2022-07-29T12:53:55.816Z,24.32
2022-07-29T12:54:57.003Z,24.24
2022-07-29T12:55:55.448Z,24.29
2022-07-29T12:56:55.681Z,24.02
2022-07-29T12:57:55.940Z,24.08
2022-07-29T12:58:59.630Z,24.21
2022-07-29T12:59:58.302Z,24.26
2022-07-29T13:00:56.807Z,24.29
2022-07-29T13:01:57.312Z,24.14